createdAt,value
2018-12-03T00:00:17.485Z,11.87
2018-12-03T00:02:45.395Z,15.77
2018-12-03T00:05:13.297Z,19.33
2018-12-03T00:07:41.197Z,17.27
2018-12-03T00:10:09.674Z,21.13
2018-12-03T00:12:37.625Z,14.67
2018-12-03T00:15:06.698Z,12.03
2018-12-03T00:17:34.858Z,13.23
2018-12-03T00:20:02.826Z,14.27
2018-12-03T00:33:53.406Z,20.87
2018-12-03T00:36:35.757Z,27.53
2018-12-03T00:39:03.842Z,18.53
2018-12-03T00:41:31.790Z,24.80
2018-12-03T00:43:59.698Z,25.90
2018-12-03T00:46:27.629Z,19.77
2018-12-03T00:48:55.545Z,20.63
2018-12-03T00:51:23.440Z,23.33
2018-12-03T00:53:51.344Z,25.47
2018-12-03T00:56:19.290Z,27.00
2018-12-03T00:58:47.189Z,19.10
2018-12-03T01:01:15.135Z,18.77
2018-12-03T01:03:43.049Z,16.47
2018-12-03T01:06:10.962Z,19.87
2018-12-03T01:08:38.886Z,15.73
2018-12-03T01:11:06.794Z,12.33
2018-12-03T01:13:34.681Z,7.10
2018-12-03T01:16:02.618Z,4.83
2018-12-03T01:18:30.521Z,8.33
2018-12-03T01:20:58.458Z,6.53
2018-12-03T01:23:26.356Z,8.27
2018-12-03T01:25:54.249Z,5.60
2018-12-03T01:28:22.182Z,5.33
2018-12-03T01:30:50.093Z,6.77
2018-12-03T01:33:17.988Z,5.23
2018-12-03T01:35:45.906Z,6.00
2018-12-03T01:38:13.823Z,4.43
2018-12-03T01:40:41.749Z,5.63
2018-12-03T01:43:09.677Z,4.27
2018-12-03T01:45:37.582Z,12.77
2018-12-03T01:48:05.566Z,4.07
2018-12-03T01:50:33.464Z,8.60
2018-12-03T01:53:01.377Z,7.90
2018-12-03T01:55:29.302Z,9.57
2018-12-03T01:57:57.199Z,7.30
2018-12-03T02:00:25.110Z,5.07
2018-12-03T02:02:53.029Z,4.97
2018-12-03T02:05:21.000Z,12.53
2018-12-03T02:07:48.915Z,4.70
2018-12-03T02:10:16.822Z,7.93
2018-12-03T02:12:44.769Z,5.03
2018-12-03T02:15:13.861Z,8.03
2018-12-03T02:17:42.024Z,4.83
2018-12-03T02:20:11.447Z,8.27
2018-12-03T02:22:39.381Z,7.00
2018-12-03T02:25:08.386Z,6.50
2018-12-03T02:27:36.369Z,8.00
2018-12-03T02:30:20.858Z,5.93
2018-12-03T02:32:48.811Z,8.77
2018-12-03T02:35:16.722Z,8.17
2018-12-03T02:37:44.642Z,5.03
2018-12-03T02:40:14.414Z,9.67
2018-12-03T02:42:42.306Z,5.17
2018-12-03T02:45:11.341Z,7.77
2018-12-03T02:47:39.325Z,5.40
2018-12-03T02:50:12.306Z,7.97
2018-12-03T02:52:40.514Z,6.50
2018-12-03T02:55:10.306Z,9.33
2018-12-03T02:57:38.230Z,7.43
2018-12-03T03:00:10.143Z,5.73
2018-12-03T03:02:38.056Z,3.80
2018-12-03T03:05:07.798Z,5.50
2018-12-03T03:07:35.787Z,9.00
2018-12-03T03:10:05.503Z,6.53
2018-12-03T03:12:33.421Z,13.43
2018-12-03T03:15:01.345Z,9.80
2018-12-03T03:17:29.285Z,8.17
2018-12-03T03:19:57.226Z,6.80
2018-12-03T03:22:25.177Z,8.80
2018-12-03T03:24:53.118Z,10.63
2018-12-03T03:27:21.046Z,9.60
2018-12-03T03:29:48.982Z,7.30
2018-12-03T03:32:16.943Z,8.00
2018-12-03T03:34:44.853Z,3.27
2018-12-03T03:37:12.799Z,5.90
2018-12-03T03:39:40.715Z,5.57
2018-12-03T03:42:08.653Z,7.07
2018-12-03T03:44:36.570Z,5.73
2018-12-03T03:47:04.502Z,4.17
2018-12-03T03:49:32.417Z,2.67
2018-12-03T03:52:00.351Z,5.43
2018-12-03T03:54:28.268Z,4.87
2018-12-03T03:56:56.205Z,3.33
2018-12-03T03:59:24.113Z,4.13
2018-12-03T04:01:52.052Z,3.03
2018-12-03T04:04:19.974Z,2.13
2018-12-03T04:06:48.027Z,5.47
2018-12-03T04:09:15.942Z,2.23
2018-12-03T04:11:43.849Z,1.50
2018-12-03T04:14:11.831Z,5.53
2018-12-03T04:16:39.793Z,1.63
2018-12-03T04:19:07.730Z,3.00
2018-12-03T04:21:35.708Z,1.93
2018-12-03T04:24:03.617Z,2.87
2018-12-03T04:26:31.556Z,3.30
2018-12-03T04:28:59.506Z,2.27
2018-12-03T04:31:27.437Z,4.23
2018-12-03T04:33:55.362Z,1.93
2018-12-03T04:36:23.403Z,3.07
2018-12-03T04:38:51.334Z,2.67
2018-12-03T04:41:19.249Z,4.53
2018-12-03T04:43:47.201Z,2.27
2018-12-03T04:46:15.151Z,2.83
2018-12-03T04:48:43.069Z,4.03
2018-12-03T04:51:10.982Z,8.00
2018-12-03T04:53:38.934Z,3.73
2018-12-03T04:56:06.917Z,3.90
2018-12-03T04:58:34.859Z,2.83
2018-12-03T05:01:02.821Z,5.17
2018-12-03T05:03:30.750Z,3.60
2018-12-03T05:05:58.686Z,1.73
2018-12-03T05:08:26.638Z,4.03
2018-12-03T05:10:54.634Z,5.87
2018-12-03T05:13:22.557Z,2.67
2018-12-03T05:15:50.477Z,4.73
2018-12-03T05:18:18.415Z,3.17
2018-12-03T05:20:46.325Z,3.43
2018-12-03T05:23:14.261Z,2.23
2018-12-03T05:25:42.189Z,3.03
2018-12-03T05:28:10.122Z,1.97
2018-12-03T05:30:38.044Z,2.90
2018-12-03T05:33:06.178Z,1.43
2018-12-03T05:35:34.366Z,1.60
2018-12-03T05:38:02.293Z,1.30
2018-12-03T05:40:31.007Z,1.40
2018-12-03T05:42:58.949Z,1.30
2018-12-03T05:45:26.870Z,2.17
2018-12-03T05:47:54.801Z,1.00
2018-12-03T05:50:22.714Z,2.50
2018-12-03T05:52:50.654Z,1.33
2018-12-03T05:55:18.577Z,5.13
2018-12-03T05:57:46.509Z,4.90
2018-12-03T06:00:17.673Z,1.30
2018-12-03T06:02:45.610Z,1.43
2018-12-03T06:05:13.981Z,1.77
2018-12-03T06:07:41.896Z,2.80
2018-12-03T06:10:12.418Z,2.47
2018-12-03T06:12:40.346Z,1.93
2018-12-03T06:15:14.421Z,3.97
2018-12-03T06:17:42.361Z,2.93
2018-12-03T06:20:11.617Z,3.50
2018-12-03T06:22:39.626Z,3.47
2018-12-03T06:25:09.603Z,3.90
2018-12-03T06:27:37.610Z,3.07
2018-12-03T06:30:11.394Z,4.40
2018-12-03T06:32:39.313Z,3.97
2018-12-03T06:35:08.753Z,2.37
2018-12-03T06:37:36.682Z,3.67
2018-12-03T06:40:08.898Z,3.47
2018-12-03T06:42:36.799Z,3.30
2018-12-03T06:45:05.017Z,7.27
2018-12-03T06:47:32.945Z,4.93
2018-12-03T06:50:00.842Z,5.30
2018-12-03T06:52:28.774Z,4.67
2018-12-03T06:54:56.694Z,7.07
2018-12-03T06:57:24.589Z,3.00
2018-12-03T06:59:52.490Z,3.50
2018-12-03T07:02:20.437Z,3.90
2018-12-03T07:04:48.333Z,7.07
2018-12-03T07:07:16.253Z,3.00
2018-12-03T07:09:44.155Z,6.40
2018-12-03T07:12:12.071Z,4.70
2018-12-03T07:14:39.954Z,6.00
2018-12-03T07:17:07.882Z,5.77
2018-12-03T07:19:35.818Z,4.43
2018-12-03T07:22:03.722Z,5.40
2018-12-03T07:24:31.640Z,6.47
2018-12-03T07:26:59.594Z,4.87
2018-12-03T07:29:27.516Z,4.10
2018-12-03T07:31:55.498Z,6.83
2018-12-03T07:34:23.410Z,4.40
2018-12-03T07:36:51.318Z,6.17
2018-12-03T07:39:19.263Z,6.30
2018-12-03T07:41:47.176Z,6.67
2018-12-03T07:44:15.097Z,7.13
2018-12-03T07:46:42.993Z,7.57
2018-12-03T07:49:10.913Z,7.50
2018-12-03T07:51:38.849Z,4.70
2018-12-03T07:54:06.785Z,4.73
2018-12-03T07:56:34.685Z,3.57
2018-12-03T07:59:02.617Z,7.83
2018-12-03T08:01:30.521Z,9.53
2018-12-03T08:03:58.451Z,7.47
2018-12-03T08:06:26.366Z,15.23
2018-12-03T08:08:54.564Z,6.90
2018-12-03T08:11:22.509Z,10.27
2018-12-03T08:13:50.422Z,12.67
2018-12-03T08:16:18.390Z,9.77
2018-12-03T08:18:46.320Z,5.87
2018-12-03T08:21:14.262Z,7.00
2018-12-03T08:23:52.878Z,12.20
2018-12-03T08:26:20.793Z,13.87
2018-12-03T08:28:48.714Z,15.70
2018-12-03T08:31:16.617Z,16.87
2018-12-03T08:33:44.573Z,17.87
2018-12-03T08:36:12.487Z,13.00
2018-12-03T08:38:41.070Z,6.50
2018-12-03T08:41:09.041Z,8.90
2018-12-03T08:43:36.984Z,14.10
2018-12-03T08:46:07.024Z,13.57
2018-12-03T08:48:36.661Z,11.90
2018-12-03T08:51:04.601Z,12.03
2018-12-03T08:53:32.573Z,11.90
2018-12-03T08:56:00.490Z,8.57
2018-12-03T08:58:28.477Z,22.27
2018-12-03T09:00:56.450Z,16.30
2018-12-03T09:03:29.162Z,17.00
2018-12-03T09:05:57.565Z,16.27
2018-12-03T09:08:25.501Z,19.87
2018-12-03T09:10:53.873Z,17.70
2018-12-03T09:13:23.203Z,13.40
2018-12-03T09:15:58.511Z,12.10
2018-12-03T09:18:34.241Z,16.60
2018-12-03T09:21:02.308Z,14.97
2018-12-03T09:23:30.221Z,9.27
2018-12-03T09:25:58.291Z,13.23
2018-12-03T09:28:26.166Z,13.67
2018-12-03T09:30:54.070Z,8.50
2018-12-03T09:33:22.006Z,13.37
2018-12-03T09:35:49.935Z,8.10
2018-12-03T09:38:17.838Z,14.20
2018-12-03T09:40:45.767Z,11.93
2018-12-03T09:43:13.682Z,15.73
2018-12-03T09:45:41.690Z,11.70
2018-12-03T09:48:09.613Z,15.40
2018-12-03T09:50:37.537Z,17.70
2018-12-03T09:53:05.683Z,12.10
2018-12-03T09:55:34.032Z,14.93
2018-12-03T09:58:06.669Z,10.57
2018-12-03T10:00:34.667Z,12.70
2018-12-03T10:03:04.669Z,12.00
2018-12-03T10:05:35.514Z,10.53
2018-12-03T10:08:03.430Z,11.47
2018-12-03T10:10:31.339Z,10.33
2018-12-03T10:13:04.434Z,8.73
2018-12-03T10:15:32.342Z,13.73
2018-12-03T10:18:00.269Z,9.40
2018-12-03T10:20:28.198Z,8.60
2018-12-03T10:22:56.129Z,12.57
2018-12-03T10:25:24.093Z,8.70
2018-12-03T10:27:56.702Z,8.93
2018-12-03T10:30:24.642Z,8.37
2018-12-03T10:32:53.090Z,8.27
2018-12-03T10:35:21.020Z,14.80
2018-12-03T10:37:49.231Z,12.20
2018-12-03T10:40:19.658Z,6.77
2018-12-03T10:42:48.346Z,6.93
2018-12-03T10:45:26.098Z,11.83
2018-12-03T10:47:52.489Z,8.33
2018-12-03T10:50:22.311Z,8.57
2018-12-03T10:52:48.305Z,12.63
2018-12-03T10:55:16.254Z,7.33
2018-12-03T10:57:45.255Z,11.33
2018-12-03T11:00:20.538Z,12.03
2018-12-03T11:02:54.675Z,13.57
2018-12-03T11:05:30.418Z,13.13
2018-12-03T11:07:58.350Z,11.30
2018-12-03T11:10:32.334Z,8.57
2018-12-03T11:13:00.262Z,12.03
2018-12-03T11:15:28.260Z,11.50
2018-12-03T11:17:56.205Z,12.37
2018-12-03T11:20:24.110Z,7.87
2018-12-03T11:22:52.037Z,12.73
2018-12-03T11:25:21.307Z,10.43
2018-12-03T11:27:50.913Z,10.03
2018-12-03T11:30:18.834Z,13.10
2018-12-03T11:32:46.782Z,12.93
2018-12-03T11:35:14.754Z,15.30
2018-12-03T11:37:44.990Z,10.83
2018-12-03T11:40:50.277Z,11.07
2018-12-03T11:43:18.235Z,10.77
2018-12-03T11:45:46.155Z,12.63
2018-12-03T11:48:14.101Z,11.17
2018-12-03T11:50:42.036Z,12.03
2018-12-03T11:53:09.989Z,9.23
2018-12-03T11:55:37.953Z,9.83
2018-12-03T11:58:06.134Z,9.40
2018-12-03T12:00:34.074Z,11.83
2018-12-03T12:03:02.019Z,14.87
2018-12-03T12:05:29.998Z,13.70
2018-12-03T12:07:57.922Z,10.53
2018-12-03T12:10:25.867Z,9.80
2018-12-03T12:12:53.814Z,8.63
2018-12-03T12:15:21.719Z,13.50
2018-12-03T12:17:49.660Z,10.33
2018-12-03T12:20:17.572Z,14.07
2018-12-03T12:22:45.473Z,8.87
2018-12-03T12:25:13.662Z,20.17
2018-12-03T12:27:46.151Z,11.47
2018-12-03T12:30:15.225Z,11.67
2018-12-03T12:32:43.154Z,12.87
2018-12-03T12:35:11.249Z,10.97
2018-12-03T12:37:39.229Z,7.20
2018-12-03T12:40:09.382Z,15.40
2018-12-03T12:42:37.334Z,9.87
2018-12-03T12:45:11.159Z,15.53
2018-12-03T12:47:39.060Z,11.10
2018-12-03T12:50:10.378Z,12.13
2018-12-03T12:52:38.321Z,11.83
2018-12-03T12:55:07.004Z,16.63
2018-12-03T12:57:34.950Z,12.03
2018-12-03T13:00:03.202Z,16.23
2018-12-03T13:02:31.104Z,13.97
2018-12-03T13:04:59.049Z,14.67
2018-12-03T13:07:26.927Z,10.87
2018-12-03T13:09:54.830Z,10.37
2018-12-03T13:12:22.759Z,19.63
2018-12-03T13:14:50.666Z,11.87
2018-12-03T13:17:18.594Z,21.47
2018-12-03T13:19:46.510Z,15.43
2018-12-03T13:22:14.477Z,16.80
2018-12-03T13:24:42.393Z,11.43
2018-12-03T13:27:10.339Z,16.07
2018-12-03T13:29:38.274Z,16.40
2018-12-03T13:32:06.421Z,13.80
2018-12-03T13:34:34.577Z,18.57
2018-12-03T13:37:02.273Z,15.97
2018-12-03T13:39:30.252Z,18.00
2018-12-03T13:41:58.182Z,21.83
2018-12-03T13:44:26.129Z,16.23
2018-12-03T13:46:54.183Z,14.60
2018-12-03T13:49:22.147Z,37.23
2018-12-03T13:51:50.116Z,47.10
2018-12-03T13:54:18.086Z,50.43
2018-12-03T13:56:46.018Z,71.47
2018-12-03T13:59:13.995Z,23.13
2018-12-03T14:01:41.942Z,14.07
2018-12-03T14:04:13.728Z,19.20
2018-12-03T14:06:46.496Z,16.07
2018-12-03T14:09:29.418Z,12.07
2018-12-03T14:12:09.570Z,9.93
2018-12-03T14:16:53.612Z,9.23
2018-12-03T14:19:24.427Z,11.07
2018-12-03T14:22:09.926Z,11.53
2018-12-03T14:24:37.893Z,12.97
2018-12-03T14:27:06.867Z,5.70
2018-12-03T14:29:34.808Z,8.50
2018-12-03T14:32:02.750Z,6.00
2018-12-03T14:34:30.962Z,5.33
2018-12-03T14:36:58.901Z,7.60
2018-12-03T14:39:26.878Z,8.43
2018-12-03T14:41:54.805Z,7.40
2018-12-03T14:44:22.730Z,6.03
2018-12-03T14:46:50.677Z,8.73
2018-12-03T14:49:18.659Z,5.60
2018-12-03T14:51:46.598Z,12.23
2018-12-03T14:54:14.598Z,5.80
2018-12-03T14:56:42.497Z,8.90
2018-12-03T14:59:10.446Z,7.07
2018-12-03T15:01:38.409Z,7.63
2018-12-03T15:04:11.876Z,6.33
2018-12-03T15:06:40.618Z,6.60
2018-12-03T15:09:08.731Z,9.37
2018-12-03T15:11:36.678Z,9.57
2018-12-03T15:14:05.071Z,7.60
2018-12-03T15:16:33.292Z,5.77
2018-12-03T15:19:01.271Z,8.60
2018-12-03T15:21:29.221Z,6.97
2018-12-03T15:23:57.181Z,9.30
2018-12-03T15:26:25.094Z,9.50
2018-12-03T15:28:53.030Z,10.83
2018-12-03T15:31:20.982Z,8.67
2018-12-03T15:33:48.945Z,7.90
2018-12-03T15:36:16.925Z,8.50
2018-12-03T15:38:44.817Z,13.00
2018-12-03T15:41:12.969Z,8.20
2018-12-03T15:43:41.461Z,7.07
2018-12-03T15:46:09.596Z,12.60
2018-12-03T15:48:37.546Z,9.40
2018-12-03T15:51:05.506Z,9.40
2018-12-03T15:53:33.432Z,6.43
2018-12-03T15:56:01.421Z,12.70
2018-12-03T15:58:29.362Z,10.37
2018-12-03T16:00:57.318Z,7.57
2018-12-03T16:03:25.267Z,8.37
2018-12-03T16:05:53.358Z,8.20
2018-12-03T16:08:21.295Z,9.43
2018-12-03T16:10:49.214Z,13.87
2018-12-03T16:13:17.171Z,10.57
2018-12-03T16:15:45.124Z,5.67
2018-12-03T16:18:13.070Z,6.80
2018-12-03T16:20:41.026Z,6.60
2018-12-03T16:23:08.941Z,6.80
2018-12-03T16:25:36.878Z,9.63
2018-12-03T16:28:04.843Z,9.70
2018-12-03T16:30:32.794Z,8.67
2018-12-03T16:33:00.767Z,6.13
2018-12-03T16:35:28.683Z,10.57
2018-12-03T16:37:56.606Z,9.77
2018-12-03T16:40:24.650Z,10.60
2018-12-03T16:42:52.582Z,22.63
2018-12-03T16:45:20.513Z,12.77
2018-12-03T16:47:48.466Z,11.87
2018-12-03T16:50:16.395Z,9.30
2018-12-03T16:52:44.337Z,7.50
2018-12-03T16:55:12.253Z,9.87
2018-12-03T16:57:40.211Z,12.10
2018-12-03T17:00:11.546Z,31.70
2018-12-03T17:02:39.497Z,12.20
2018-12-03T17:05:07.435Z,6.47
2018-12-03T17:07:35.382Z,13.00
2018-12-03T17:10:03.353Z,11.93
2018-12-03T17:12:31.586Z,6.40
2018-12-03T17:14:59.514Z,6.77
2018-12-03T17:17:27.430Z,6.17
2018-12-03T17:19:55.362Z,3.30
2018-12-03T17:22:34.037Z,6.00
2018-12-03T17:25:01.953Z,6.00
2018-12-03T17:27:29.877Z,4.70
2018-12-03T17:29:57.845Z,5.17
2018-12-03T17:32:25.787Z,5.93
2018-12-03T17:34:53.702Z,8.20
2018-12-03T17:37:21.646Z,11.27
2018-12-03T17:39:49.610Z,11.17
2018-12-03T17:42:17.522Z,8.40
2018-12-03T17:44:45.455Z,9.67
2018-12-03T17:47:13.398Z,12.00
2018-12-03T17:49:41.349Z,13.97
2018-12-03T17:52:09.266Z,7.37
2018-12-03T17:54:37.183Z,6.60
2018-12-03T17:57:05.122Z,8.53
2018-12-03T17:59:33.123Z,7.23
2018-12-03T18:02:01.076Z,5.20
2018-12-03T18:04:29.006Z,2.53
2018-12-03T18:06:56.964Z,3.50
2018-12-03T18:09:24.904Z,5.03
2018-12-03T18:11:52.830Z,5.23
2018-12-03T18:14:20.804Z,7.53
2018-12-03T18:16:48.702Z,6.60
2018-12-03T18:19:16.645Z,5.60
2018-12-03T18:21:44.619Z,11.87
2018-12-03T18:24:12.530Z,8.20
2018-12-03T18:26:40.474Z,4.70
2018-12-03T18:29:08.375Z,7.83
2018-12-03T18:31:36.301Z,9.10
2018-12-03T18:34:04.274Z,5.47
2018-12-03T18:36:32.193Z,6.07
2018-12-03T18:39:00.154Z,11.87
2018-12-03T18:41:28.082Z,9.73
2018-12-03T18:43:56.028Z,4.83
2018-12-03T18:46:23.945Z,9.13
2018-12-03T18:48:57.223Z,11.33
2018-12-03T18:51:25.189Z,11.00
2018-12-03T18:53:53.121Z,3.60
2018-12-03T18:56:21.043Z,11.20
2018-12-03T18:59:00.168Z,10.13
2018-12-03T19:01:28.119Z,9.63
2018-12-03T19:03:56.063Z,7.17
2018-12-03T19:06:24.002Z,8.57
2018-12-03T19:08:51.951Z,5.97
2018-12-03T19:11:19.896Z,9.27
2018-12-03T19:13:47.809Z,11.43
2018-12-03T19:16:15.781Z,8.57
2018-12-03T19:18:43.709Z,8.97
2018-12-03T19:21:11.694Z,5.90
2018-12-03T19:23:39.678Z,10.37
2018-12-03T19:26:07.616Z,9.07
2018-12-03T19:28:35.539Z,8.00
2018-12-03T19:31:03.482Z,8.27
2018-12-03T19:33:31.409Z,8.43
2018-12-03T19:35:59.326Z,8.97
2018-12-03T19:38:27.292Z,9.27
2018-12-03T19:40:55.231Z,9.47
2018-12-03T19:43:23.186Z,10.97
2018-12-03T19:45:51.969Z,12.47
2018-12-03T19:48:19.892Z,9.30
2018-12-03T19:50:47.845Z,11.27
2018-12-03T19:53:15.994Z,10.57
2018-12-03T19:55:44.241Z,18.00
2018-12-03T19:58:16.399Z,11.13
2018-12-03T20:00:45.703Z,9.03
2018-12-03T20:03:13.625Z,5.90
2018-12-03T20:05:41.571Z,11.57
2018-12-03T20:08:09.501Z,7.33
2018-12-03T20:10:37.411Z,12.60
2018-12-03T20:13:05.414Z,14.37
2018-12-03T20:15:33.349Z,13.67
2018-12-03T20:18:01.265Z,12.27
2018-12-03T20:20:39.074Z,15.27
2018-12-03T20:23:12.865Z,12.90
2018-12-03T20:25:50.129Z,11.77
2018-12-03T20:28:28.082Z,7.97
2018-12-03T20:31:07.477Z,15.80
2018-12-03T20:34:08.045Z,14.20
2018-12-03T20:36:35.881Z,14.10
2018-12-03T20:39:07.029Z,14.00
2018-12-03T20:41:34.486Z,12.30
2018-12-03T20:44:02.249Z,10.30
2018-12-03T20:46:29.638Z,12.47
2018-12-03T20:48:56.917Z,16.57
2018-12-03T20:51:24.174Z,13.90
2018-12-03T20:53:51.414Z,12.80
2018-12-03T20:56:18.636Z,15.37
2018-12-03T20:58:45.854Z,14.57
2018-12-03T21:01:13.094Z,11.10
2018-12-03T21:03:40.330Z,13.20
2018-12-03T21:06:07.533Z,15.67
2018-12-03T21:08:35.405Z,16.70
2018-12-03T21:11:02.901Z,16.97
2018-12-03T21:13:30.354Z,11.63
2018-12-03T21:15:57.601Z,16.87
2018-12-03T21:18:24.848Z,11.67
2018-12-03T21:20:52.198Z,16.53
2018-12-03T21:23:19.869Z,11.70
2018-12-03T21:25:47.069Z,10.83
2018-12-03T21:28:14.265Z,17.87
2018-12-03T21:30:41.537Z,18.90
2018-12-03T21:33:08.817Z,11.03
2018-12-03T21:35:36.046Z,11.10
2018-12-03T21:38:03.286Z,13.07
2018-12-03T21:40:30.581Z,14.90
2018-12-03T21:42:57.846Z,15.63
2018-12-03T21:45:25.174Z,17.90
2018-12-03T21:47:52.437Z,12.97
2018-12-03T21:50:19.635Z,14.07
2018-12-03T21:52:46.830Z,14.73
2018-12-03T21:55:14.221Z,12.33
2018-12-03T21:57:41.481Z,11.20
2018-12-03T22:00:10.702Z,10.10
2018-12-03T22:02:37.903Z,12.57
2018-12-03T22:05:05.169Z,10.80
2018-12-03T22:07:32.390Z,11.97
2018-12-03T22:09:59.586Z,9.07
2018-12-03T22:12:26.805Z,9.67
2018-12-03T22:14:54.006Z,11.77
2018-12-03T22:17:21.248Z,9.43
2018-12-03T22:19:48.620Z,9.90
2018-12-03T22:22:15.874Z,10.97
2018-12-03T22:24:43.108Z,10.83
2018-12-03T22:27:11.208Z,10.27
2018-12-03T22:29:38.425Z,10.00
2018-12-03T22:32:05.641Z,9.80
2018-12-03T22:34:32.873Z,15.43
2018-12-03T22:37:00.094Z,8.93
2018-12-03T22:39:27.310Z,14.97
2018-12-03T22:41:54.637Z,7.60
2018-12-03T22:44:21.847Z,9.97
2018-12-03T22:46:49.038Z,7.47
2018-12-03T22:49:16.265Z,8.80
2018-12-03T22:51:43.477Z,9.50
2018-12-03T22:54:10.693Z,10.97
2018-12-03T22:56:37.885Z,8.27
2018-12-03T22:59:05.136Z,11.87
2018-12-03T23:01:32.417Z,9.03
2018-12-03T23:03:59.675Z,8.17
2018-12-03T23:06:26.922Z,7.33
2018-12-03T23:08:54.135Z,7.43
2018-12-03T23:11:21.436Z,10.70
2018-12-03T23:13:48.745Z,9.47
2018-12-03T23:16:16.062Z,6.17
2018-12-03T23:18:43.293Z,8.07
2018-12-03T23:21:10.542Z,9.93
2018-12-03T23:23:37.761Z,9.77
2018-12-03T23:26:05.010Z,8.07
2018-12-03T23:28:32.210Z,7.77
2018-12-03T23:30:59.466Z,10.10
2018-12-03T23:33:26.661Z,8.97
2018-12-03T23:35:53.929Z,8.93
2018-12-03T23:38:21.131Z,7.10
2018-12-03T23:40:48.405Z,5.27
2018-12-03T23:43:15.622Z,6.47
2018-12-03T23:45:42.809Z,6.47
2018-12-03T23:48:10.033Z,6.43
2018-12-03T23:50:37.233Z,6.00
2018-12-03T23:53:04.481Z,6.93
2018-12-03T23:55:31.691Z,8.37
2018-12-03T23:57:58.923Z,7.10
